Time;durP1;ratioP1;P1;durP2;ratioP2;P2;SDS_P1;SDS_P2;PMS_P1;PMS_P2;Temp;Humidity;BMP_temperature;BMP_pressure;BME280_temperature;BME280_humidity;BME280_pressure;Samples;Min_cycle;Max_cycle;Signal;HPM_P1;HPM_P2
2022/06/20 00:01:42;;;;;;;9.85;6.07;;;;;22.20;93656.00;;;;7391355;19;20150;-73
2022/06/20 00:04:17;;;;;;;12.18;5.90;;;;;22.20;93654.00;;;;7390007;19;20147;-73
2022/06/20 00:06:50;;;;;;;11.00;5.88;;;;;22.20;93653.00;;;;7389998;19;20165;-72
2022/06/20 00:09:18;;;;;;;14.77;6.32;;;;;22.20;93643.00;;;;7390431;19;20596;-72
2022/06/20 00:11:48;;;;;;;13.02;5.82;;;;;22.40;93641.00;;;;7390089;19;20595;-72
2022/06/20 00:14:22;;;;;;;9.68;5.95;;;;;22.30;93636.00;;;;7389275;19;20149;-72
2022/06/20 00:16:50;;;;;;;24.75;6.25;;;;;22.40;93629.00;;;;7387899;19;20142;-74
2022/06/20 00:19:17;;;;;;;14.32;5.95;;;;;22.70;93631.00;;;;7390456;19;20141;-72
2022/06/20 00:21:51;;;;;;;11.70;5.60;;;;;22.70;93633.00;;;;7388192;19;20227;-73
2022/06/20 00:24:19;;;;;;;14.70;5.68;;;;;22.80;93626.00;;;;7388729;19;20222;-73
2022/06/20 00:26:47;;;;;;;14.35;5.60;;;;;23.10;93616.00;;;;7391639;19;20153;-73
2022/06/20 00:29:22;;;;;;;13.85;5.78;;;;;23.70;93616.00;;;;7389736;19;20137;-72
2022/06/20 00:31:51;;;;;;;13.93;5.05;;;;;24.00;93612.00;;;;7390262;19;20150;-73
2022/06/20 00:34:18;;;;;;;14.57;5.22;;;;;24.10;93617.00;;;;7398420;19;20200;-72
2022/06/20 00:36:52;;;;;;;12.18;5.20;;;;;24.10;93603.00;;;;7395297;19;20151;-73
2022/06/20 00:39:21;;;;;;;19.60;5.80;;;;;24.00;93608.00;;;;7396250;19;20155;-73
2022/06/20 00:41:49;;;;;;;15.38;5.53;;;;;23.80;93613.00;;;;7396788;19;20506;-72
2022/06/20 00:44:34;;;;;;;13.27;4.95;;;;;23.90;93609.00;;;;7395160;19;20168;-74
2022/06/20 00:47:07;;;;;;;14.13;5.53;;;;;23.80;93614.00;;;;7396780;19;20156;-73
2022/06/20 00:50:03;;;;;;;14.98;5.38;;;;;23.70;93609.00;;;;7396388;19;20147;-73
2022/06/20 00:52:46;;;;;;;14.13;5.25;;;;;23.70;93618.00;;;;7394702;19;20157;-72
2022/06/20 00:55:39;;;;;;;19.58;6.03;;;;;23.70;93625.00;;;;7397518;19;20128;-73
2022/06/20 00:58:33;;;;;;;12.55;4.90;;;;;23.70;93618.00;;;;7396098;19;20600;-74
2022/06/20 01:01:16;;;;;;;13.80;5.28;;;;;23.70;93619.00;;;;7396888;19;20162;-82
2022/06/20 01:03:51;;;;;;;17.70;5.07;;;;;23.90;93627.00;;;;7394736;19;20615;-83
2022/06/20 01:06:33;;;;;;;14.10;5.15;;;;;24.00;93623.00;;;;7394596;19;20615;-83
2022/06/20 01:09:07;;;;;;;15.48;5.18;;;;;23.90;93618.00;;;;7395203;19;20605;-83
2022/06/20 01:11:50;;;;;;;12.63;4.80;;;;;23.80;93624.00;;;;7395938;19;20618;-83
2022/06/20 01:14:26;;;;;;;15.10;4.93;;;;;23.80;93623.00;;;;7394955;19;20737;-83
2022/06/20 01:17:04;;;;;;;13.32;4.93;;;;;24.00;93626.00;;;;7392232;19;20231;-83
2022/06/20 01:19:40;;;;;;;14.85;5.13;;;;;23.90;93630.00;;;;7394724;19;20141;-81
2022/06/20 01:22:39;;;;;;;15.40;5.13;;;;;24.10;93616.00;;;;7393688;19;20144;-81
2022/06/20 01:25:21;;;;;;;22.13;5.00;;;;;24.30;93622.00;;;;7395558;19;20481;-84
2022/06/20 01:27:56;;;;;;;14.80;4.93;;;;;24.20;93634.00;;;;7396194;19;20137;-80
2022/06/20 01:30:27;;;;;;;19.20;5.78;;;;;24.20;93632.00;;;;7393485;19;20494;-82
2022/06/20 01:32:57;;;;;;;21.08;4.93;;;;;24.10;93633.00;;;;7394200;19;20116;-80
2022/06/20 01:38:21;;;;;;;14.75;4.85;;;;;24.50;93629.00;;;;7394638;19;20161;-83
2022/06/20 01:43:43;;;;;;;14.48;4.70;;;;;24.30;93634.00;;;;7392814;19;20620;-84
2022/06/20 01:46:18;;;;;;;15.82;5.20;;;;;24.30;93644.00;;;;7393109;19;20145;-81
2022/06/20 01:48:50;;;;;;;19.30;4.90;;;;;24.70;93635.00;;;;7394848;19;20137;-80
2022/06/20 01:51:32;;;;;;;10.85;4.82;;;;;24.70;93638.00;;;;7393191;19;20124;-81
2022/06/20 01:54:08;;;;;;;15.52;4.00;;;;;24.70;93640.00;;;;7392155;19;20144;-82
2022/06/20 01:56:47;;;;;;;17.10;4.63;;;;;24.80;93640.00;;;;7392342;19;20595;-81
2022/06/20 01:59:29;;;;;;;14.05;4.60;;;;;24.70;93636.00;;;;7395944;19;20229;-79
2022/06/20 02:02:04;;;;;;;16.88;4.88;;;;;24.90;93631.00;;;;7395358;19;20161;-79
2022/06/20 02:04:34;;;;;;;14.70;5.07;;;;;24.80;93635.00;;;;7392992;19;20220;-83
2022/06/20 02:07:05;;;;;;;15.65;5.68;;;;;24.90;93638.00;;;;7395430;19;20177;-79
2022/06/20 02:09:41;;;;;;;11.93;4.40;;;;;24.80;93631.00;;;;7397574;19;20129;-81
2022/06/20 02:12:10;;;;;;;16.20;5.05;;;;;24.90;93631.00;;;;7394609;19;20160;-82
2022/06/20 02:15:00;;;;;;;14.73;4.15;;;;;24.90;93633.00;;;;7393797;19;20564;-80
2022/06/20 02:17:39;;;;;;;11.75;4.30;;;;;24.90;93637.00;;;;7391839;19;20236;-81
2022/06/20 02:20:13;;;;;;;10.45;4.38;;;;;25.00;93627.00;;;;7394815;19;20596;-80
2022/06/20 02:22:49;;;;;;;18.48;5.13;;;;;25.20;93626.00;;;;7393715;19;20142;-81
2022/06/20 02:25:24;;;;;;;14.27;4.00;;;;;25.30;93624.00;;;;7392460;19;20133;-81
2022/06/20 02:28:12;;;;;;;19.50;4.80;;;;;25.10;93637.00;;;;7394202;19;20164;-81
2022/06/20 02:30:40;;;;;;;15.55;4.50;;;;;25.10;93639.00;;;;7395055;19;20343;-81
2022/06/20 02:33:18;;;;;;;17.60;4.80;;;;;25.10;93636.00;;;;7393455;19;20136;-82
2022/06/20 02:35:45;;;;;;;14.77;4.95;;;;;25.10;93635.00;;;;7393064;19;20571;-82
2022/06/20 02:38:13;;;;;;;19.90;4.95;;;;;25.00;93627.00;;;;7393547;19;20149;-81
2022/06/20 02:40:49;;;;;;;17.15;4.63;;;;;25.10;93643.00;;;;7393766;19;20116;-81
2022/06/20 02:43:37;;;;;;;17.48;4.78;;;;;25.10;93637.00;;;;7391570;19;20141;-80
2022/06/20 02:46:14;;;;;;;12.20;3.95;;;;;25.10;93629.00;;;;7391489;19;20192;-82
2022/06/20 02:48:45;;;;;;;13.05;4.68;;;;;25.30;93623.00;;;;7392232;19;20125;-84
2022/06/20 02:51:28;;;;;;;19.42;5.20;;;;;25.30;93608.00;;;;7392879;19;20133;-78
2022/06/20 02:54:05;;;;;;;12.35;3.92;;;;;25.30;93601.00;;;;7387897;19;20144;-75
2022/06/20 02:56:48;;;;;;;13.48;4.68;;;;;25.40;93609.00;;;;7388833;19;20608;-79
2022/06/20 02:59:23;;;;;;;10.40;4.43;;;;;25.30;93615.00;;;;7391956;19;20149;-79
2022/06/20 03:02:02;;;;;;;14.95;4.45;;;;;25.20;93621.00;;;;7391448;19;20146;-78
2022/06/20 03:04:32;;;;;;;11.73;4.35;;;;;25.30;93610.00;;;;7391455;19;20144;-83
2022/06/20 03:07:30;;;;;;;13.88;4.03;;;;;25.40;93622.00;;;;7390661;19;20599;-80
2022/06/20 03:10:13;;;;;;;6.75;4.30;;;;;25.30;93616.00;;;;7391491;19;20599;-79
2022/06/20 03:12:48;;;;;;;8.90;4.22;;;;;25.20;93636.00;;;;7391952;19;20607;-77
2022/06/20 03:15:16;;;;;;;9.52;4.03;;;;;25.10;93671.00;;;;7394036;19;20192;-79
2022/06/20 03:17:46;;;;;;;19.20;6.03;;;;;23.70;93671.00;;;;7389861;19;20921;-77
2022/06/20 03:20:21;;;;;;;13.90;5.97;;;;;22.10;93688.00;;;;7389687;19;20129;-78
2022/06/20 03:23:02;;;;;;;15.45;6.18;;;;;21.10;93692.00;;;;7391122;19;20133;-78
2022/06/20 03:25:39;;;;;;;10.75;5.72;;;;;20.30;93709.00;;;;7391255;19;20135;-77
2022/06/20 03:28:17;;;;;;;13.65;6.90;;;;;19.90;93705.00;;;;7390044;19;20143;-78
2022/06/20 03:31:03;;;;;;;14.68;6.63;;;;;19.30;93700.00;;;;7390415;19;20165;-79
2022/06/20 03:33:32;;;;;;;12.25;5.80;;;;;19.00;93715.00;;;;7389797;19;20169;-78
2022/06/20 03:36:24;;;;;;;13.02;5.95;;;;;18.70;93714.00;;;;7391198;19;20586;-78
2022/06/20 03:38:52;;;;;;;14.40;7.20;;;;;18.80;93713.00;;;;7391754;19;20125;-78
2022/06/20 03:41:27;;;;;;;14.50;7.30;;;;;18.80;93732.00;;;;7389100;19;20128;-78
2022/06/20 03:44:19;;;;;;;15.80;7.25;;;;;18.50;93740.00;;;;7390223;19;20196;-79
2022/06/20 03:47:01;;;;;;;17.48;7.50;;;;;18.40;93734.00;;;;7389985;19;20145;-79
2022/06/20 03:49:37;;;;;;;12.00;6.97;;;;;18.30;93726.00;;;;7390231;19;20255;-80
2022/06/20 03:52:21;;;;;;;14.30;6.78;;;;;18.30;93728.00;;;;7389531;19;20149;-79
2022/06/20 03:55:19;;;;;;;13.75;6.20;;;;;18.20;93727.00;;;;7385791;19;20635;-79
2022/06/20 03:58:04;;;;;;;14.68;7.07;;;;;18.40;93715.00;;;;7388911;19;20612;-81
2022/06/20 04:00:47;;;;;;;19.42;6.90;;;;;18.40;93732.00;;;;7388745;19;20136;-79
2022/06/20 04:03:58;;;;;;;11.32;6.72;;;;;18.40;93751.00;;;;7388533;19;20157;-81
2022/06/20 04:06:55;;;;;;;13.85;6.93;;;;;18.30;93766.00;;;;7388523;19;20144;-79
2022/06/20 04:12:41;;;;;;;13.93;6.80;;;;;18.20;93706.00;;;;7396208;19;20165;-80
2022/06/20 04:15:37;;;;;;;14.30;6.50;;;;;18.10;93727.00;;;;7397923;19;20476;-78
2022/06/20 04:18:27;;;;;;;14.15;6.68;;;;;18.10;93733.00;;;;7394523;19;20468;-78
2022/06/20 04:21:10;;;;;;;15.25;6.53;;;;;18.10;93727.00;;;;7397214;19;20169;-82
2022/06/20 04:23:44;;;;;;;15.90;6.35;;;;;18.10;93738.00;;;;7397846;19;20161;-80
2022/06/20 04:26:28;;;;;;;14.48;6.38;;;;;18.20;93738.00;;;;7394619;19;20620;-82
2022/06/20 04:29:12;;;;;;;10.43;6.00;;;;;18.20;93746.00;;;;7397421;19;20157;-80
2022/06/20 04:31:49;;;;;;;12.88;6.97;;;;;18.20;93760.00;;;;7396166;19;20620;-80
2022/06/20 04:34:21;;;;;;;12.80;6.20;;;;;18.30;93755.00;;;;7398118;19;20140;-80
2022/06/20 04:37:00;;;;;;;12.25;6.22;;;;;18.20;93783.00;;;;7395816;19;20481;-80
2022/06/20 04:39:40;;;;;;;12.55;6.78;;;;;18.00;93777.00;;;;7395225;19;20150;-78
2022/06/20 04:42:20;;;;;;;12.00;6.30;;;;;17.90;93794.00;;;;7394437;19;20161;-80
2022/06/20 04:45:04;;;;;;;16.58;6.32;;;;;17.90;93782.00;;;;7393549;19;20172;-80
2022/06/20 04:47:51;;;;;;;14.90;6.30;;;;;18.00;93772.00;;;;7396019;19;20543;-80
2022/06/20 04:50:26;;;;;;;12.25;6.72;;;;;17.90;93755.00;;;;7396001;19;20157;-79
2022/06/20 04:53:12;;;;;;;12.32;6.75;;;;;17.90;93757.00;;;;7394838;19;20184;-78
2022/06/20 04:55:49;;;;;;;13.60;6.57;;;;;17.70;93755.00;;;;7392019;19;20197;-77
2022/06/20 04:58:39;;;;;;;12.80;6.70;;;;;17.70;93741.00;;;;7395577;19;20206;-76
2022/06/20 05:01:08;;;;;;;13.73;6.50;;;;;17.70;93747.00;;;;7394109;19;20595;-77
2022/06/20 05:04:20;;;;;;;10.63;6.45;;;;;17.70;93735.00;;;;7394734;19;20488;-76
2022/06/20 05:06:48;;;;;;;13.18;6.65;;;;;17.80;93721.00;;;;7396365;19;20124;-76
2022/06/20 05:09:41;;;;;;;10.82;6.72;;;;;18.00;93721.00;;;;7393338;19;20120;-76
2022/06/20 05:12:25;;;;;;;12.30;6.80;;;;;18.10;93719.00;;;;7392333;19;20655;-75
2022/06/20 05:15:18;;;;;;;11.75;6.15;;;;;18.30;93713.00;;;;7393406;19;20161;-77
2022/06/20 05:17:48;;;;;;;12.55;6.78;;;;;18.50;93718.00;;;;7394662;19;20129;-76
2022/06/20 05:20:31;;;;;;;12.63;6.97;;;;;18.60;93724.00;;;;7394089;19;20132;-76
2022/06/20 05:23:26;;;;;;;12.27;6.53;;;;;18.80;93740.00;;;;7393312;19;20149;-77
2022/06/20 05:26:02;;;;;;;12.00;6.75;;;;;18.90;93729.00;;;;7391682;19;20142;-76
2022/06/20 05:28:32;;;;;;;11.20;6.30;;;;;19.00;93725.00;;;;7392518;19;20124;-77
2022/06/20 05:31:02;;;;;;;15.77;6.75;;;;;18.80;93740.00;;;;7393646;19;20146;-75
2022/06/20 05:34:06;;;;;;;11.98;6.13;;;;;18.70;93739.00;;;;7394208;19;20175;-78
2022/06/20 05:36:49;;;;;;;12.68;6.72;;;;;18.70;93746.00;;;;7393007;19;20510;-77
2022/06/20 05:39:27;;;;;;;11.90;6.25;;;;;18.80;93749.00;;;;7393306;19;20125;-79
2022/06/20 05:41:55;;;;;;;10.23;5.68;;;;;18.80;93741.00;;;;7392364;19;20141;-77
2022/06/20 05:44:23;;;;;;;14.43;6.57;;;;;18.80;93759.00;;;;7391396;19;20137;-77
2022/06/20 05:47:03;;;;;;;14.13;6.80;;;;;18.70;93768.00;;;;7395139;19;20132;-78
2022/06/20 05:49:40;;;;;;;12.93;6.55;;;;;18.80;93790.00;;;;7392093;19;20136;-77
2022/06/20 05:52:22;;;;;;;14.93;6.35;;;;;18.90;93797.00;;;;7391358;19;20140;-79
2022/06/20 05:55:21;;;;;;;11.73;6.43;;;;;19.10;93802.00;;;;7391037;19;20227;-77
2022/06/20 05:57:57;;;;;;;15.98;6.00;;;;;19.30;93800.00;;;;7389734;19;20152;-78
2022/06/20 06:00:33;;;;;;;14.95;6.97;;;;;19.20;93810.00;;;;7393826;19;20125;-77
2022/06/20 06:03:16;;;;;;;9.27;5.82;;;;;19.40;93806.00;;;;7393601;19;20584;-77
2022/06/20 06:05:54;;;;;;;12.85;6.78;;;;;19.30;93805.00;;;;7392282;19;20144;-79
2022/06/20 06:08:48;;;;;;;13.95;6.15;;;;;19.20;93804.00;;;;7391959;19;20165;-77
2022/06/20 06:11:39;;;;;;;11.02;6.15;;;;;19.40;93799.00;;;;7391223;19;20163;-78
2022/06/20 06:14:22;;;;;;;11.30;5.70;;;;;19.60;93782.00;;;;7390725;19;20169;-78
2022/06/20 06:16:58;;;;;;;12.35;6.43;;;;;19.80;93786.00;;;;7392668;19;20136;-78
2022/06/20 06:20:10;;;;;;;12.82;6.70;;;;;20.00;93775.00;;;;7392607;19;20547;-78
2022/06/20 06:22:43;;;;;;;11.57;6.53;;;;;20.50;93760.00;;;;7392252;19;20140;-78
2022/06/20 06:25:30;;;;;;;9.70;5.45;;;;;21.20;93767.00;;;;7391266;19;20939;-78
2022/06/20 06:28:20;;;;;;;12.98;6.03;;;;;21.50;93778.00;;;;7389263;19;20141;-78
2022/06/20 06:31:11;;;;;;;11.25;5.05;;;;;21.90;93761.00;;;;7388593;19;20168;-77
2022/06/20 06:33:51;;;;;;;10.57;4.57;;;;;22.40;93751.00;;;;7392201;19;20134;-75
2022/06/20 06:36:44;;;;;;;9.63;5.00;;;;;23.00;93753.00;;;;7390210;19;20600;-77
2022/06/20 06:39:20;;;;;;;8.63;4.32;;;;;23.50;93750.00;;;;7390943;19;20489;-78
2022/06/20 06:42:02;;;;;;;10.80;4.95;;;;;23.70;93751.00;;;;7390595;19;20129;-77
2022/06/20 06:44:40;;;;;;;8.18;4.45;;;;;23.80;93753.00;;;;7388298;19;20661;-78
2022/06/20 06:47:23;;;;;;;9.55;4.75;;;;;24.10;93750.00;;;;7389046;19;20595;-77
2022/06/20 06:49:57;;;;;;;6.30;4.10;;;;;24.20;93764.00;;;;7390113;19;20133;-78
2022/06/20 06:52:42;;;;;;;12.52;4.70;;;;;24.30;93775.00;;;;7391244;19;20129;-76
2022/06/20 06:55:35;;;;;;;7.50;4.57;;;;;24.20;93768.00;;;;7389003;19;20152;-77
2022/06/20 06:58:29;;;;;;;15.05;4.65;;;;;24.10;93764.00;;;;7385501;19;20109;-76
2022/06/20 07:01:08;;;;;;;7.28;4.60;;;;;24.30;93762.00;;;;7389883;19;20140;-78
2022/06/20 07:03:52;;;;;;;10.05;4.70;;;;;24.30;93784.00;;;;7389221;19;20137;-78
2022/06/20 07:06:28;;;;;;;12.90;5.60;;;;;24.50;93794.00;;;;7390427;19;20177;-77
2022/06/20 07:09:16;;;;;;;12.15;4.50;;;;;24.40;93788.00;;;;7389611;19;20164;-77
2022/06/20 07:11:55;;;;;;;11.05;5.18;;;;;24.50;93794.00;;;;7390699;19;20132;-77
2022/06/20 07:14:31;;;;;;;10.50;4.80;;;;;24.30;93795.00;;;;7388910;19;20142;-79
2022/06/20 07:17:07;;;;;;;14.35;4.95;;;;;24.40;93797.00;;;;7388018;19;20133;-82
2022/06/20 07:19:45;;;;;;;9.88;4.78;;;;;24.50;93812.00;;;;7390584;19;20148;-77
2022/06/20 07:22:15;;;;;;;8.00;4.95;;;;;24.30;93810.00;;;;7388853;19;20137;-80
2022/06/20 07:24:51;;;;;;;13.48;5.25;;;;;24.40;93821.00;;;;7390875;19;20137;-77
2022/06/20 07:27:39;;;;;;;10.23;5.05;;;;;24.30;93816.00;;;;7390022;19;20129;-77
2022/06/20 07:30:20;;;;;;;12.13;5.20;;;;;24.30;93809.00;;;;7394009;19;20123;-78
2022/06/20 07:33:02;;;;;;;13.25;5.25;;;;;24.20;93811.00;;;;7395537;19;20522;-78
2022/06/20 07:35:43;;;;;;;9.88;4.90;;;;;24.40;93815.00;;;;7395497;19;20503;-78
2022/06/20 07:38:42;;;;;;;11.32;5.40;;;;;24.30;93818.00;;;;7391324;19;20638;-80
2022/06/20 07:41:24;;;;;;;13.73;5.65;;;;;24.50;93819.00;;;;7391154;19;20124;-79
2022/06/20 07:44:04;;;;;;;10.55;5.35;;;;;24.90;93828.00;;;;7386375;19;20171;-79
2022/06/20 07:47:10;;;;;;;11.55;5.70;;;;;24.50;93818.00;;;;7387881;19;20153;-77
2022/06/20 07:49:48;;;;;;;10.15;5.43;;;;;24.20;93836.00;;;;7388939;19;20579;-76
2022/06/20 07:52:40;;;;;;;11.80;5.85;;;;;24.40;93830.00;;;;7388236;19;20765;-79
2022/06/20 07:55:20;;;;;;;15.02;6.28;;;;;24.80;93831.00;;;;7388100;19;20149;-78
2022/06/20 07:58:14;;;;;;;15.70;6.57;;;;;24.40;93827.00;;;;7386825;19;20594;-79
2022/06/20 08:00:54;;;;;;;12.00;5.75;;;;;23.90;93838.00;;;;7387658;19;20133;-78
2022/06/20 08:03:39;;;;;;;18.08;6.60;;;;;24.10;93831.00;;;;7391176;19;20137;-78
2022/06/20 08:06:34;;;;;;;13.50;5.95;;;;;24.50;93835.00;;;;7388116;19;20896;-77
2022/06/20 08:09:30;;;;;;;11.32;6.25;;;;;24.70;93838.00;;;;7387911;19;20144;-77
2022/06/20 08:12:24;;;;;;;12.43;6.20;;;;;24.70;93837.00;;;;7387877;19;20760;-78
2022/06/20 08:15:03;;;;;;;9.02;6.18;;;;;24.50;93830.00;;;;7388575;19;20141;-76
2022/06/20 08:17:32;;;;;;;17.73;6.43;;;;;24.90;93832.00;;;;7389916;19;20487;-78
2022/06/20 08:20:07;;;;;;;12.82;6.05;;;;;24.60;93828.00;;;;7389576;19;20120;-78
2022/06/20 08:22:38;;;;;;;16.02;5.80;;;;;24.60;93825.00;;;;7389244;19;20174;-77
2022/06/20 08:25:22;;;;;;;9.23;5.78;;;;;24.60;93819.00;;;;7390118;19;20121;-78
2022/06/20 08:28:08;;;;;;;10.85;6.13;;;;;25.10;93828.00;;;;7390612;19;20164;-81
2022/06/20 08:30:47;;;;;;;8.90;5.57;;;;;24.80;93824.00;;;;7390211;19;20477;-79
2022/06/20 08:33:34;;;;;;;9.77;5.32;;;;;24.90;93824.00;;;;7388137;19;20169;-77
2022/06/20 08:36:16;;;;;;;13.55;6.00;;;;;25.20;93814.00;;;;7389169;19;20117;-81
2022/06/20 08:39:03;;;;;;;8.57;5.40;;;;;25.10;93846.00;;;;7387286;19;20135;-77
2022/06/20 08:41:49;;;;;;;13.48;5.72;;;;;24.20;93845.00;;;;7389452;19;20224;-78
2022/06/20 08:44:27;;;;;;;8.82;5.80;;;;;24.60;93837.00;;;;7389917;19;20136;-80
2022/06/20 08:47:10;;;;;;;11.35;5.25;;;;;24.90;93843.00;;;;7391501;19;20124;-75
2022/06/20 08:50:03;;;;;;;10.05;5.20;;;;;24.60;93842.00;;;;7389636;19;20129;-78
2022/06/20 08:53:08;;;;;;;14.10;5.65;;;;;25.00;93829.00;;;;7388073;19;20144;-80
2022/06/20 08:55:57;;;;;;;8.57;5.18;;;;;25.30;93829.00;;;;7390946;19;20220;-79
2022/06/20 08:58:42;;;;;;;14.02;5.50;;;;;25.80;93842.00;;;;7392296;19;20460;-79
2022/06/20 09:01:46;;;;;;;10.52;5.60;;;;;25.80;93835.00;;;;7392654;19;20155;-77
2022/06/20 09:04:46;;;;;;;9.70;4.88;;;;;26.00;93843.00;;;;7393055;19;20145;-78
2022/06/20 09:07:29;;;;;;;11.98;4.72;;;;;26.50;93845.00;;;;7396382;19;20129;-78
2022/06/20 09:10:13;;;;;;;10.27;4.88;;;;;26.40;93841.00;;;;7395143;19;20613;-78
2022/06/20 09:13:06;;;;;;;9.98;4.82;;;;;26.20;93849.00;;;;7397777;19;20165;-78
2022/06/20 09:15:59;;;;;;;7.68;4.82;;;;;27.00;93842.00;;;;7398891;19;20588;-79
2022/06/20 09:19:07;;;;;;;11.60;5.30;;;;;27.00;93832.00;;;;7394708;19;20136;-78
2022/06/20 09:21:56;;;;;;;9.93;4.95;;;;;27.70;93857.00;;;;7393880;19;20141;-77
2022/06/20 09:24:57;;;;;;;9.00;5.20;;;;;27.10;93869.00;;;;7397527;19;20169;-78
2022/06/20 09:27:45;;;;;;;12.40;4.57;;;;;26.60;93879.00;;;;7396306;19;20199;-77
2022/06/20 09:30:30;;;;;;;8.93;4.68;;;;;25.60;93882.00;;;;7395351;19;20462;-79
2022/06/20 09:33:33;;;;;;;9.88;4.97;;;;;25.40;93889.00;;;;7396073;19;20143;-78
2022/06/20 09:36:22;;;;;;;12.60;5.55;;;;;24.70;93888.00;;;;7394050;19;20145;-77
2022/06/20 09:39:01;;;;;;;14.85;4.95;;;;;24.80;93885.00;;;;7391749;19;20133;-77
2022/06/20 09:41:39;;;;;;;14.57;5.15;;;;;24.90;93893.00;;;;7392298;19;20149;-78
2022/06/20 09:44:10;;;;;;;7.60;5.18;;;;;24.50;93901.00;;;;7393195;19;20194;-77
2022/06/20 09:46:55;;;;;;;9.00;4.93;;;;;24.10;93895.00;;;;7395711;19;20138;-75
2022/06/20 09:49:45;;;;;;;23.00;5.82;;;;;24.10;93899.00;;;;7393722;19;20132;-77
2022/06/20 09:52:27;;;;;;;13.63;6.25;;;;;23.60;93901.00;;;;7392473;19;20487;-74
2022/06/20 09:55:29;;;;;;;11.23;5.22;;;;;23.30;93898.00;;;;7392099;19;20172;-75
2022/06/20 09:58:38;;;;;;;10.52;5.05;;;;;23.20;93906.00;;;;7391051;19;20623;-78
2022/06/20 10:01:16;;;;;;;28.85;5.88;;;;;23.00;93894.00;;;;7389424;19;20144;-77
2022/06/20 10:04:06;;;;;;;15.80;4.90;;;;;23.20;93891.00;;;;7394032;19;20491;-77
2022/06/20 10:07:01;;;;;;;9.35;4.60;;;;;23.60;93890.00;;;;7389792;19;20137;-77
2022/06/20 10:09:59;;;;;;;28.25;5.80;;;;;23.50;93900.00;;;;7392210;19;20141;-79
2022/06/20 10:12:40;;;;;;;34.67;6.45;;;;;23.70;93895.00;;;;7393109;19;20200;-76
2022/06/20 10:15:16;;;;;;;12.73;5.32;;;;;23.40;93892.00;;;;7392859;19;20143;-79
2022/06/20 10:18:08;;;;;;;12.45;5.18;;;;;23.50;93891.00;;;;7394718;19;20144;-79
2022/06/20 10:21:12;;;;;;;13.93;4.65;;;;;23.30;93895.00;;;;7393673;19;20136;-78
2022/06/20 10:23:59;;;;;;;11.48;4.93;;;;;23.50;93906.00;;;;7392699;19;20153;-77
2022/06/20 10:27:03;;;;;;;8.48;4.20;;;;;23.50;93890.00;;;;7394773;19;20599;-76
2022/06/20 10:29:49;;;;;;;10.50;4.70;;;;;23.70;93894.00;;;;7393409;19;20133;-77
2022/06/20 10:32:55;;;;;;;7.47;4.80;;;;;23.80;93888.00;;;;7390770;19;20647;-78
2022/06/20 10:35:42;;;;;;;9.95;4.40;;;;;23.70;93893.00;;;;7392928;19;20627;-78
2022/06/20 10:38:37;;;;;;;6.43;4.30;;;;;23.50;93903.00;;;;7390529;19;20141;-79
2022/06/20 10:41:20;;;;;;;10.32;4.35;;;;;23.50;93895.00;;;;7393264;19;20141;-79
2022/06/20 10:44:20;;;;;;;8.75;3.95;;;;;23.10;93896.00;;;;7390967;19;20176;-76
2022/06/20 10:47:16;;;;;;;6.72;3.97;;;;;23.30;93893.00;;;;7394547;19;20217;-79
2022/06/20 10:50:11;;;;;;;8.52;3.78;;;;;23.00;93897.00;;;;7392640;19;20136;-76
2022/06/20 10:53:03;;;;;;;8.18;3.83;;;;;22.80;93901.00;;;;7392786;19;20613;-77
2022/06/20 10:56:21;;;;;;;6.40;4.07;;;;;22.80;93903.00;;;;7390339;19;20976;-78
2022/06/20 10:59:22;;;;;;;8.50;3.55;;;;;23.10;93900.00;;;;7389927;19;20133;-76
2022/06/20 11:02:25;;;;;;;5.22;3.28;;;;;23.50;93909.00;;;;7390583;19;20596;-79
2022/06/20 11:05:19;;;;;;;7.15;3.42;;;;;23.70;93903.00;;;;7392024;19;20148;-78
2022/06/20 11:08:17;;;;;;;7.65;3.50;;;;;23.40;93915.00;;;;7390605;19;20618;-77
2022/06/20 11:11:02;;;;;;;6.30;3.92;;;;;23.60;93923.00;;;;7391720;19;20169;-82
2022/06/20 11:13:47;;;;;;;5.63;3.60;;;;;23.50;93922.00;;;;7391566;19;20140;-78
2022/06/20 11:16:32;;;;;;;4.32;3.38;;;;;23.50;93924.00;;;;7390714;19;20161;-78
2022/06/20 11:19:36;;;;;;;6.03;3.88;;;;;23.40;93923.00;;;;7389417;19;20209;-79
2022/06/20 11:22:03;;;;;;;7.82;3.78;;;;;23.20;93930.00;;;;7389303;19;20159;-79
2022/06/20 11:24:48;;;;;;;4.25;3.55;;;;;23.10;93931.00;;;;7390246;19;20163;-80
2022/06/20 11:28:11;;;;;;;8.32;3.00;;;;;23.00;93939.00;;;;7390332;19;20128;-78
2022/06/20 11:31:28;;;;;;;7.68;3.03;;;;;23.10;93947.00;;;;7389310;19;20140;-79
2022/06/20 11:34:46;;;;;;;5.88;3.25;;;;;22.60;93948.00;;;;7387139;19;20584;-78
2022/06/20 11:37:50;;;;;;;7.60;2.90;;;;;22.20;93952.00;;;;7388760;19;20163;-79
2022/06/20 11:40:41;;;;;;;4.70;2.63;;;;;22.20;93950.00;;;;7388671;19;20132;-78
2022/06/20 11:43:18;;;;;;;5.35;2.70;;;;;22.20;93961.00;;;;7390070;19;20128;-77
2022/06/20 11:45:52;;;;;;;4.93;2.50;;;;;22.50;93956.00;;;;7390426;19;20659;-79
2022/06/20 11:48:35;;;;;;;5.03;2.92;;;;;22.50;93949.00;;;;7390743;19;20125;-76
2022/06/20 11:51:22;;;;;;;8.82;2.90;;;;;22.90;93942.00;;;;7387638;19;20145;-79
2022/06/20 11:54:27;;;;;;;4.72;2.60;;;;;22.90;93961.00;;;;7388670;19;20148;-78
2022/06/20 11:57:10;;;;;;;6.18;2.72;;;;;22.90;93954.00;;;;7389743;19;20192;-80
2022/06/20 11:59:59;;;;;;;4.72;2.53;;;;;22.80;93958.00;;;;7387312;19;20129;-78
2022/06/20 12:02:56;;;;;;;5.55;2.80;;;;;23.20;93963.00;;;;7386688;19;20161;-76
2022/06/20 12:05:51;;;;;;;10.30;3.08;;;;;23.50;93958.00;;;;7388787;19;20127;-77
2022/06/20 12:08:31;;;;;;;6.20;2.88;;;;;23.60;93967.00;;;;7388843;19;20137;-78
2022/06/20 12:11:40;;;;;;;3.40;2.67;;;;;23.30;93982.00;;;;7389384;19;20121;-78
2022/06/20 12:14:39;;;;;;;4.18;2.33;;;;;23.00;93981.00;;;;7388682;19;20191;-76
2022/06/20 12:17:31;;;;;;;5.65;2.25;;;;;22.60;93984.00;;;;7389036;19;20168;-76
2022/06/20 12:23:20;;;;;;;3.42;1.85;;;;;23.00;93969.00;;;;7390240;19;20129;-76
2022/06/20 12:26:04;;;;;;;6.57;2.22;;;;;23.20;93984.00;;;;7393006;19;20137;-80
2022/06/20 12:28:41;;;;;;;5.63;2.13;;;;;23.30;93984.00;;;;7393483;19;20120;-76
2022/06/20 12:31:11;;;;;;;6.35;2.20;;;;;23.40;93989.00;;;;7395382;19;20128;-80
2022/06/20 12:33:51;;;;;;;3.30;2.15;;;;;23.40;93989.00;;;;7395618;19;20601;-77
2022/06/20 12:36:27;;;;;;;8.25;2.22;;;;;23.40;93996.00;;;;7397372;19;20129;-78
2022/06/20 12:39:09;;;;;;;5.50;2.10;;;;;23.00;93981.00;;;;7396122;19;20129;-78
2022/06/20 12:41:46;;;;;;;7.20;2.00;;;;;23.30;93985.00;;;;7396050;19;20611;-78
2022/06/20 12:44:30;;;;;;;7.20;2.00;;;;;23.70;93980.00;;;;7395691;19;20128;-77
2022/06/20 12:47:29;;;;;;;3.67;1.70;;;;;23.60;93989.00;;;;7397782;19;20140;-77
2022/06/20 12:50:14;;;;;;;4.05;2.45;;;;;23.60;93985.00;;;;7396436;19;20131;-81
2022/06/20 12:53:04;;;;;;;6.10;2.50;;;;;23.50;93992.00;;;;7395333;19;20133;-78
2022/06/20 12:56:33;;;;;;;9.73;4.47;;;;;23.50;94013.00;;;;7395149;19;20145;-81
2022/06/20 12:59:38;;;;;;;14.38;4.03;;;;;22.60;94017.00;;;;7396495;19;20133;-80
2022/06/20 13:02:23;;;;;;;13.27;4.40;;;;;23.00;94017.00;;;;7395376;19;20133;-80
2022/06/20 13:05:20;;;;;;;12.07;4.43;;;;;24.20;93995.00;;;;7395354;19;20141;-82
2022/06/20 13:08:12;;;;;;;7.93;4.07;;;;;25.80;93979.00;;;;7396671;19;20143;-85
2022/06/20 13:10:40;;;;;;;8.18;4.40;;;;;26.80;93981.00;;;;7395280;19;20616;-80
2022/06/20 13:13:32;;;;;;;9.63;4.75;;;;;27.00;93990.00;;;;7393725;19;20140;-80
2022/06/20 13:16:27;;;;;;;10.40;4.50;;;;;27.10;93992.00;;;;7394344;19;20135;-78
2022/06/20 13:19:26;;;;;;;10.32;4.55;;;;;26.60;94007.00;;;;7391879;19;20136;-78
2022/06/20 13:22:03;;;;;;;9.25;4.10;;;;;26.10;94015.00;;;;7392816;19;20406;-77
2022/06/20 13:25:27;;;;;;;8.27;4.38;;;;;25.30;94024.00;;;;7393887;19;20184;-79
2022/06/20 13:28:20;;;;;;;10.45;5.40;;;;;24.00;94044.00;;;;7393314;19;20129;-76
2022/06/20 13:31:20;;;;;;;7.25;4.53;;;;;22.90;94069.00;;;;7392251;19;20497;-78
2022/06/20 13:34:01;;;;;;;13.63;5.03;;;;;22.50;94060.00;;;;7391323;19;20157;-77
2022/06/20 13:36:47;;;;;;;9.80;4.40;;;;;22.20;94057.00;;;;7392330;19;20580;-77
2022/06/20 13:39:53;;;;;;;7.43;4.50;;;;;22.30;94061.00;;;;7392389;19;20508;-77
2022/06/20 13:42:37;;;;;;;8.30;5.07;;;;;22.50;94059.00;;;;7392483;19;20595;-78
2022/06/20 13:45:18;;;;;;;9.43;4.50;;;;;23.00;94049.00;;;;7391104;19;20891;-76
2022/06/20 13:48:26;;;;;;;8.38;5.68;;;;;22.60;94056.00;;;;7393646;19;20121;-75